createdAt,value
2023-01-23T00:00:41.610Z,-10.70
2023-01-23T00:03:39.679Z,-10.70
2023-01-23T00:06:37.466Z,-10.70
2023-01-23T00:09:35.143Z,-10.70
2023-01-23T00:12:32.933Z,-10.80
2023-01-23T00:15:30.736Z,-10.70
2023-01-23T00:18:28.768Z,-10.80
2023-01-23T00:21:28.706Z,-10.80
2023-01-23T00:24:26.588Z,-10.70
2023-01-23T00:27:24.453Z,-10.70
2023-01-23T00:30:22.541Z,-10.70
2023-01-23T00:33:20.185Z,-10.80
2023-01-23T00:36:17.984Z,-11.00
2023-01-23T00:39:18.507Z,-11.00
2023-01-23T00:42:16.260Z,-11.10
2023-01-23T00:45:13.958Z,-11.10
2023-01-23T00:48:11.702Z,-11.10
2023-01-23T00:51:09.406Z,-11.10
2023-01-23T00:54:07.325Z,-11.10
2023-01-23T00:57:05.706Z,-11.10
2023-01-23T01:00:07.251Z,-11.00
2023-01-23T01:03:05.813Z,-11.00
2023-01-23T01:06:04.179Z,-11.00
2023-01-23T01:09:02.540Z,-11.00
2023-01-23T01:12:00.582Z,-10.90
2023-01-23T01:14:58.276Z,-10.80
2023-01-23T01:17:56.132Z,-10.80
2023-01-23T01:20:55.730Z,-10.80
2023-01-23T01:23:53.772Z,-10.80
2023-01-23T01:26:51.457Z,-10.80
2023-01-23T01:29:49.234Z,-10.70
2023-01-23T01:32:47.228Z,-10.70
2023-01-23T01:35:45.014Z,-10.60
2023-01-23T01:38:42.928Z,-10.60
2023-01-23T01:41:40.727Z,-10.50
2023-01-23T01:44:55.698Z,-10.60
2023-01-23T01:47:53.510Z,-10.50
2023-01-23T01:50:51.930Z,-10.50
2023-01-23T01:53:57.066Z,-10.50
2023-01-23T01:57:09.008Z,-10.40
2023-01-23T02:00:11.016Z,-10.40
2023-01-23T02:03:12.540Z,-10.40
2023-01-23T02:06:12.613Z,-10.40
2023-01-23T02:09:23.990Z,-10.40
2023-01-23T02:12:22.200Z,-10.40
2023-01-23T02:15:22.728Z,-10.40
2023-01-23T02:18:22.064Z,-10.40
2023-01-23T02:21:25.157Z,-10.40
2023-01-23T02:24:29.662Z,-10.40
2023-01-23T02:27:27.325Z,-10.30
2023-01-23T02:30:25.418Z,-10.30
2023-01-23T02:33:44.669Z,-10.30
2023-01-23T02:36:46.166Z,-10.30
2023-01-23T02:39:43.966Z,-10.30
2023-01-23T02:42:45.427Z,-10.20
2023-01-23T02:45:43.354Z,-10.20
2023-01-23T02:48:44.402Z,-10.10
2023-01-23T02:51:42.128Z,-10.10
2023-01-23T02:54:41.152Z,-10.10
2023-01-23T02:57:38.820Z,-10.10
2023-01-23T03:00:36.654Z,-10.00
2023-01-23T03:03:34.429Z,-9.90
2023-01-23T03:06:36.777Z,-9.90
2023-01-23T03:09:34.497Z,-9.80
2023-01-23T03:12:32.313Z,-9.80
2023-01-23T03:15:32.007Z,-9.70
2023-01-23T03:18:31.397Z,-9.70
2023-01-23T03:21:29.306Z,-9.70
2023-01-23T03:24:27.205Z,-9.60
2023-01-23T03:27:24.966Z,-9.50
2023-01-23T03:30:26.100Z,-9.40
2023-01-23T03:33:24.050Z,-9.20
2023-01-23T03:36:22.255Z,-9.00
2023-01-23T03:39:35.330Z,-8.90
2023-01-23T03:42:36.869Z,-8.70
2023-01-23T03:45:34.817Z,-8.60
2023-01-23T03:48:32.599Z,-8.50
2023-01-23T03:51:30.336Z,-8.30
2023-01-23T03:54:28.631Z,-8.20
2023-01-23T03:57:26.281Z,-8.10
2023-01-23T04:00:24.154Z,-8.10
2023-01-23T04:03:21.988Z,-8.00
2023-01-23T04:06:20.549Z,-8.00
2023-01-23T04:09:18.304Z,-8.10
2023-01-23T04:12:26.793Z,-8.00
2023-01-23T04:15:24.671Z,-8.00
2023-01-23T04:18:22.609Z,-7.90
2023-01-23T04:21:20.641Z,-7.80
2023-01-23T04:24:18.815Z,-7.60
2023-01-23T04:27:16.448Z,-7.60
2023-01-23T04:30:15.019Z,-7.50
2023-01-23T04:33:13.091Z,-7.50
2023-01-23T04:36:12.235Z,-7.50
2023-01-23T04:39:10.121Z,-7.50
2023-01-23T04:42:08.309Z,-7.40
2023-01-23T04:45:06.503Z,-7.40
2023-01-23T04:48:04.596Z,-7.30
2023-01-23T04:51:02.679Z,-7.10
2023-01-23T04:54:00.560Z,-7.00
2023-01-23T04:56:58.283Z,-6.90
2023-01-23T04:59:57.736Z,-6.90
2023-01-23T05:02:57.262Z,-6.90
2023-01-23T05:05:55.035Z,-6.70
2023-01-23T05:08:52.758Z,-6.60
2023-01-23T05:11:50.547Z,-6.50
2023-01-23T05:14:50.093Z,-6.40
2023-01-23T05:17:48.754Z,-6.30
2023-01-23T05:20:46.425Z,-6.30
2023-01-23T05:23:44.205Z,-6.20
2023-01-23T05:26:43.087Z,-6.20
2023-01-23T05:29:40.891Z,-6.20
2023-01-23T05:32:38.586Z,-6.20
2023-01-23T05:35:36.412Z,-6.20
2023-01-23T05:38:34.204Z,-6.10
2023-01-23T05:41:31.970Z,-6.10
2023-01-23T05:44:31.435Z,-6.10
2023-01-23T05:47:30.582Z,-6.10
2023-01-23T05:50:28.305Z,-6.10
2023-01-23T05:53:26.173Z,-6.10
2023-01-23T05:56:23.867Z,-6.00
2023-01-23T05:59:21.683Z,-6.00
2023-01-23T06:02:19.372Z,-6.00
2023-01-23T06:05:17.507Z,-6.00
2023-01-23T06:08:15.394Z,-6.10
2023-01-23T06:11:14.752Z,-6.20
2023-01-23T06:14:12.718Z,-6.20
2023-01-23T06:17:13.300Z,-6.10
2023-01-23T06:20:12.676Z,-6.10
2023-01-23T06:23:10.598Z,-6.00
2023-01-23T06:26:08.378Z,-5.90
2023-01-23T06:29:06.383Z,-6.00
2023-01-23T06:32:04.451Z,-5.90
2023-01-23T06:35:03.016Z,-6.10
2023-01-23T06:38:02.737Z,-6.00
2023-01-23T06:41:00.746Z,-6.00
2023-01-23T06:43:58.481Z,-6.00
2023-01-23T06:46:56.337Z,-6.00
2023-01-23T06:49:54.008Z,-6.10
2023-01-23T06:52:51.762Z,-6.10
2023-01-23T06:55:49.389Z,-5.90
2023-01-23T06:58:47.795Z,-5.90
2023-01-23T07:01:45.615Z,-5.90
2023-01-23T07:04:43.542Z,-5.90
2023-01-23T07:07:41.343Z,-5.90
2023-01-23T07:10:39.355Z,-5.90
2023-01-23T07:13:39.055Z,-5.80
2023-01-23T07:16:37.231Z,-5.80
2023-01-23T07:19:34.966Z,-5.70
2023-01-23T07:22:32.838Z,-5.80
2023-01-23T07:25:30.922Z,-5.80
2023-01-23T07:28:29.178Z,-5.70
2023-01-23T07:31:26.945Z,-5.60
2023-01-23T07:34:24.925Z,-5.70
2023-01-23T07:37:22.693Z,-5.60
2023-01-23T07:40:20.806Z,-5.60
2023-01-23T07:43:19.235Z,-5.60
2023-01-23T07:46:17.058Z,-5.50
2023-01-23T07:49:15.552Z,-5.50
2023-01-23T07:52:13.343Z,-5.50
2023-01-23T07:55:11.213Z,-5.50
2023-01-23T07:58:09.001Z,-5.50
2023-01-23T08:01:11.618Z,-5.50
2023-01-23T08:04:09.440Z,-5.40
2023-01-23T08:07:07.322Z,-5.50
2023-01-23T08:10:05.601Z,-5.40
2023-01-23T08:13:03.430Z,-5.60
2023-01-23T08:16:01.797Z,-5.60
2023-01-23T08:18:59.613Z,-5.60
2023-01-23T08:21:57.393Z,-5.50
2023-01-23T08:24:55.090Z,-5.50
2023-01-23T08:27:52.936Z,-5.60
2023-01-23T08:30:51.373Z,-5.70
2023-01-23T08:33:49.170Z,-6.00
2023-01-23T08:36:46.863Z,-6.20
2023-01-23T08:39:44.732Z,-5.90
2023-01-23T08:42:42.430Z,-6.20
2023-01-23T08:45:41.408Z,-6.10
2023-01-23T08:48:39.791Z,-5.90
2023-01-23T08:51:37.505Z,-5.90
2023-01-23T08:54:35.572Z,-5.80
2023-01-23T08:57:33.341Z,-5.80
2023-01-23T09:00:31.123Z,-5.80
2023-01-23T09:03:29.183Z,-5.70
2023-01-23T09:06:27.135Z,-5.70
2023-01-23T09:09:24.997Z,-5.80
2023-01-23T09:12:22.806Z,-5.70
2023-01-23T09:15:21.031Z,-5.70
2023-01-23T09:18:18.833Z,-5.60
2023-01-23T09:21:18.452Z,-5.70
2023-01-23T09:24:16.931Z,-5.70
2023-01-23T09:27:14.945Z,-5.80
2023-01-23T09:30:13.230Z,-5.90
2023-01-23T09:33:11.085Z,-5.70
2023-01-23T09:36:09.527Z,-5.60
2023-01-23T09:39:07.411Z,-5.80
2023-01-23T09:42:08.616Z,-5.80
2023-01-23T09:45:08.657Z,-5.70
2023-01-23T09:48:17.347Z,-5.70
2023-01-23T09:51:37.307Z,-5.70
2023-01-23T09:54:51.863Z,-5.70
2023-01-23T09:57:55.303Z,-5.70
2023-01-23T10:00:52.877Z,-5.70
2023-01-23T10:03:50.676Z,-5.80
2023-01-23T10:07:08.986Z,-5.80
2023-01-23T10:10:34.030Z,-5.80
2023-01-23T10:13:51.314Z,-5.80
2023-01-23T10:17:11.086Z,-5.70
2023-01-23T10:20:40.038Z,-5.70
2023-01-23T10:24:00.415Z,-5.50
2023-01-23T10:27:09.896Z,-5.60
2023-01-23T10:30:26.904Z,-5.50
2023-01-23T10:33:40.498Z,-5.70
2023-01-23T10:36:54.824Z,-5.60
2023-01-23T10:40:02.725Z,-5.80
2023-01-23T10:43:03.599Z,-5.80
2023-01-23T10:46:01.339Z,-6.00
2023-01-23T10:49:01.873Z,-6.10
2023-01-23T10:52:00.365Z,-6.30
2023-01-23T10:54:58.249Z,-6.30
2023-01-23T10:57:59.243Z,-6.40
2023-01-23T11:00:57.380Z,-6.50
2023-01-23T11:03:55.262Z,-6.60
2023-01-23T11:07:11.989Z,-6.60
2023-01-23T11:10:22.092Z,-6.70
2023-01-23T11:13:29.249Z,-6.80
2023-01-23T11:16:26.974Z,-6.80
2023-01-23T11:19:25.069Z,-6.90
2023-01-23T11:22:30.663Z,-7.00
2023-01-23T11:25:37.430Z,-7.10
2023-01-23T11:28:49.711Z,-7.20
2023-01-23T11:31:50.250Z,-7.30
2023-01-23T11:34:53.837Z,-7.40
2023-01-23T11:37:52.307Z,-7.40
2023-01-23T11:40:50.328Z,-7.30
2023-01-23T11:43:48.650Z,-7.50
2023-01-23T11:47:00.956Z,-7.70
2023-01-23T11:50:18.452Z,-7.70
2023-01-23T11:53:41.487Z,-8.00
2023-01-23T11:57:02.951Z,-8.00
2023-01-23T12:00:22.384Z,-7.90
2023-01-23T12:03:42.933Z,-8.00
2023-01-23T12:07:05.956Z,-8.10
2023-01-23T12:10:24.600Z,-8.00
2023-01-23T12:13:42.371Z,-8.10
2023-01-23T12:17:04.698Z,-8.10
2023-01-23T12:20:25.977Z,-8.10
2023-01-23T12:23:52.087Z,-8.00
2023-01-23T12:27:20.404Z,-8.10
2023-01-23T12:30:49.184Z,-8.20
2023-01-23T12:34:26.732Z,-8.20
2023-01-23T12:37:42.141Z,-8.30
2023-01-23T12:40:49.496Z,-8.30
2023-01-23T12:44:02.568Z,-8.30
2023-01-23T12:47:06.555Z,-8.50
2023-01-23T12:50:21.219Z,-8.60
2023-01-23T12:53:23.491Z,-8.70
2023-01-23T12:56:26.706Z,-8.80
2023-01-23T12:59:43.973Z,-8.70
2023-01-23T13:02:52.581Z,-8.90
2023-01-23T13:06:21.046Z,-8.80
2023-01-23T13:09:41.843Z,-8.90
2023-01-23T13:12:40.195Z,-9.10
2023-01-23T13:15:40.804Z,-9.10
2023-01-23T13:18:55.815Z,-9.00
2023-01-23T13:22:27.206Z,-8.90
2023-01-23T13:25:29.569Z,-8.90
2023-01-23T13:28:49.350Z,-9.00
2023-01-23T13:31:50.836Z,-9.00
2023-01-23T13:34:48.667Z,-8.90
2023-01-23T13:37:51.733Z,-8.90
2023-01-23T13:41:28.083Z,-8.90
2023-01-23T13:44:40.777Z,-9.00
2023-01-23T14:22:02.800Z,-9.10
2023-01-23T14:25:00.775Z,-9.10
2023-01-23T14:28:07.810Z,-9.10
2023-01-23T14:31:08.257Z,-9.00
2023-01-23T14:34:17.812Z,-9.10
2023-01-23T14:37:17.067Z,-9.10
2023-01-23T14:40:27.132Z,-9.10
2023-01-23T14:43:28.856Z,-9.00
2023-01-23T14:46:37.413Z,-9.00
2023-01-23T14:49:38.081Z,-9.00
2023-01-23T14:52:36.150Z,-9.00
2023-01-23T14:55:40.408Z,-9.10
2023-01-23T14:58:39.673Z,-9.10
2023-01-23T15:01:38.655Z,-9.10
2023-01-23T15:04:36.623Z,-9.10
2023-01-23T15:07:35.663Z,-9.10
2023-01-23T15:10:45.177Z,-9.00
2023-01-23T15:13:48.980Z,-9.10
2023-01-23T15:16:47.355Z,-9.20
2023-01-23T15:19:55.877Z,-9.10
2023-01-23T15:22:53.781Z,-9.10
2023-01-23T15:26:11.109Z,-9.00
2023-01-23T15:29:38.817Z,-9.00
2023-01-23T15:32:40.097Z,-9.10
2023-01-23T15:35:38.891Z,-9.10
2023-01-23T15:38:36.909Z,-9.00
2023-01-23T15:41:48.871Z,-9.00
2023-01-23T15:44:46.610Z,-9.00
2023-01-23T15:47:44.713Z,-9.00
2023-01-23T15:50:42.655Z,-9.10
2023-01-23T15:53:40.647Z,-9.10
2023-01-23T15:56:40.110Z,-8.90
2023-01-23T15:59:38.292Z,-8.90
2023-01-23T16:02:44.245Z,-8.90
2023-01-23T16:05:48.524Z,-8.90
2023-01-23T16:08:50.062Z,-8.90
2023-01-23T16:11:53.172Z,-8.90
2023-01-23T16:14:50.823Z,-8.90
2023-01-23T16:17:49.451Z,-8.80
2023-01-23T16:20:47.665Z,-8.80
2023-01-23T16:23:47.554Z,-8.90
2023-01-23T16:26:46.690Z,-9.00
2023-01-23T16:29:45.540Z,-9.00
2023-01-23T16:32:43.338Z,-8.90
2023-01-23T16:35:42.743Z,-8.90
2023-01-23T16:38:40.902Z,-8.90
2023-01-23T16:41:38.693Z,-8.90
2023-01-23T16:44:36.597Z,-8.80
2023-01-23T16:47:34.735Z,-8.80
2023-01-23T16:50:36.486Z,-8.70
2023-01-23T16:53:41.756Z,-8.70
2023-01-23T16:56:40.990Z,-8.80
2023-01-23T16:59:41.218Z,-8.80
2023-01-23T17:02:38.976Z,-8.70
2023-01-23T17:05:37.847Z,-8.80
2023-01-23T17:08:35.643Z,-8.70
2023-01-23T17:11:38.035Z,-8.70
2023-01-23T17:14:36.340Z,-8.60
2023-01-23T17:17:36.179Z,-8.70
2023-01-23T17:20:33.883Z,-8.70
2023-01-23T17:23:32.495Z,-8.50
2023-01-23T17:26:30.256Z,-8.50
2023-01-23T17:29:28.791Z,-8.50
2023-01-23T17:32:36.219Z,-8.60
2023-01-23T17:35:37.920Z,-8.60
2023-01-23T17:38:38.791Z,-8.60
2023-01-23T17:41:36.588Z,-8.50
2023-01-23T17:44:34.383Z,-8.50
2023-01-23T17:47:35.038Z,-8.50
2023-01-23T17:50:32.816Z,-8.50
2023-01-23T17:53:31.493Z,-8.50
2023-01-23T17:56:29.387Z,-8.50
2023-01-23T17:59:27.532Z,-8.40
2023-01-23T18:02:28.973Z,-8.40
2023-01-23T18:05:27.505Z,-8.40
2023-01-23T18:08:25.459Z,-8.40
2023-01-23T18:11:24.886Z,-8.30
2023-01-23T18:14:38.245Z,-8.40
2023-01-23T18:17:52.317Z,-8.40
2023-01-23T18:20:55.111Z,-8.40
2023-01-23T18:23:53.179Z,-8.40
2023-01-23T18:27:10.303Z,-8.30
2023-01-23T18:30:21.809Z,-8.30
2023-01-23T18:33:42.692Z,-8.20
2023-01-23T18:36:59.656Z,-8.20
2023-01-23T18:40:23.362Z,-8.00
2023-01-23T18:43:40.579Z,-8.00
2023-01-23T18:46:38.461Z,-7.90
2023-01-23T18:49:36.710Z,-7.90
2023-01-23T18:52:44.073Z,-7.80
2023-01-23T18:56:08.189Z,-7.80
2023-01-23T18:59:26.502Z,-7.80
2023-01-23T19:02:51.115Z,-7.80
2023-01-23T19:05:48.966Z,-7.80
2023-01-23T19:08:48.484Z,-7.70
2023-01-23T19:12:00.781Z,-7.80
2023-01-23T19:15:21.678Z,-7.80
2023-01-23T19:18:43.561Z,-7.70
2023-01-23T19:21:42.775Z,-7.70
2023-01-23T19:24:40.838Z,-7.60
2023-01-23T19:27:38.714Z,-7.60
2023-01-23T19:30:38.510Z,-7.70
2023-01-23T19:33:37.515Z,-7.60
2023-01-23T19:36:38.361Z,-7.60
2023-01-23T19:39:37.777Z,-7.70
2023-01-23T19:42:52.306Z,-7.60
2023-01-23T19:45:57.194Z,-7.40
2023-01-23T19:48:56.460Z,-7.40
2023-01-23T19:51:54.798Z,-7.30
2023-01-23T19:54:52.848Z,-7.30
2023-01-23T19:57:51.046Z,-7.20
2023-01-23T20:00:49.141Z,-7.30
2023-01-23T20:03:47.228Z,-7.30
2023-01-23T20:06:45.981Z,-7.30
2023-01-23T20:09:44.076Z,-7.10
2023-01-23T20:12:45.044Z,-7.10
2023-01-23T20:15:42.798Z,-7.10
2023-01-23T20:18:40.579Z,-7.10
2023-01-23T20:21:38.674Z,-7.10
2023-01-23T20:24:36.876Z,-7.10
2023-01-23T20:27:35.975Z,-7.00
2023-01-23T20:30:34.422Z,-6.90
2023-01-23T20:33:32.593Z,-6.90
2023-01-23T20:36:30.697Z,-7.00
2023-01-23T20:39:39.336Z,-7.10
2023-01-23T20:42:37.121Z,-7.20
2023-01-23T20:45:35.215Z,-7.30
2023-01-23T20:48:35.457Z,-7.40
2023-01-23T20:51:33.413Z,-7.40
2023-01-23T20:54:31.117Z,-7.40
2023-01-23T20:57:49.000Z,-7.40
2023-01-23T21:00:47.139Z,-7.40
2023-01-23T21:03:47.349Z,-7.40
2023-01-23T21:06:46.095Z,-7.30
2023-01-23T21:09:46.021Z,-7.40
2023-01-23T21:12:43.825Z,-7.30
2023-01-23T21:15:43.500Z,-7.40
2023-01-23T21:18:45.175Z,-7.40
2023-01-23T21:21:43.448Z,-7.40
2023-01-23T21:24:41.544Z,-7.40
2023-01-23T21:27:39.388Z,-7.60
2023-01-23T21:30:39.333Z,-8.00
2023-01-23T21:33:37.231Z,-8.20
2023-01-23T21:36:38.507Z,-8.40
2023-01-23T21:39:36.600Z,-8.30
2023-01-23T21:42:34.359Z,-8.30
2023-01-23T21:45:32.251Z,-8.30
2023-01-23T21:48:30.969Z,-8.30
2023-01-23T21:51:29.061Z,-8.30
2023-01-23T21:54:27.338Z,-8.40
2023-01-23T21:57:25.177Z,-8.50
2023-01-23T22:00:38.174Z,-8.70
2023-01-23T22:03:36.311Z,-8.80
2023-01-23T22:06:35.364Z,-8.90
2023-01-23T22:09:33.203Z,-9.00
2023-01-23T22:12:31.038Z,-9.00
2023-01-23T22:16:14.762Z,-9.00
2023-01-23T22:19:58.561Z,-9.00
2023-01-23T22:23:42.731Z,-9.10
2023-01-23T22:27:26.347Z,-9.10
2023-01-23T22:31:10.775Z,-9.10
2023-01-23T22:34:54.745Z,-9.10
2023-01-23T22:38:38.601Z,-9.10
2023-01-23T22:42:22.530Z,-9.10
2023-01-23T22:46:06.182Z,-9.00
2023-01-23T22:49:49.828Z,-8.90
2023-01-23T22:53:33.692Z,-9.00
2023-01-23T22:57:17.334Z,-8.90
2023-01-23T23:01:01.294Z,-8.90
2023-01-23T23:04:45.044Z,-9.00
2023-01-23T23:08:29.163Z,-8.80
2023-01-23T23:12:12.791Z,-8.80
2023-01-23T23:15:56.816Z,-8.70
2023-01-23T23:19:40.542Z,-8.60
2023-01-23T23:23:24.544Z,-8.50
2023-01-23T23:27:08.447Z,-8.40
2023-01-23T23:30:52.126Z,-8.30
2023-01-23T23:34:36.394Z,-8.30
2023-01-23T23:38:21.167Z,-8.10
2023-01-23T23:42:04.947Z,-8.10
2023-01-23T23:45:49.300Z,-8.00
2023-01-23T23:49:33.073Z,-8.00
2023-01-23T23:53:16.860Z,-7.90
2023-01-23T23:57:00.625Z,-7.90
